createdAt,value
2022-11-09T00:00:43.761Z,47.77
2022-11-09T00:03:12.119Z,47.83
2022-11-09T00:05:40.222Z,47.70
2022-11-09T00:08:11.183Z,47.47
2022-11-09T00:10:39.704Z,47.47
2022-11-09T00:13:07.485Z,47.50
2022-11-09T00:15:35.250Z,47.50
2022-11-09T00:18:03.645Z,47.77
2022-11-09T00:20:31.454Z,47.70
2022-11-09T00:22:59.258Z,47.93
2022-11-09T00:25:28.345Z,47.50
2022-11-09T00:27:56.118Z,47.67
2022-11-09T00:30:27.537Z,47.50
2022-11-09T00:32:56.138Z,47.97
2022-11-09T00:35:23.916Z,48.00
2022-11-09T00:37:51.744Z,47.87
2022-11-09T00:40:19.524Z,47.80
2022-11-09T00:42:48.626Z,47.60
2022-11-09T00:45:17.069Z,47.73
2022-11-09T00:47:45.601Z,47.87
2022-11-09T00:50:13.430Z,47.63
2022-11-09T00:52:41.198Z,47.43
2022-11-09T00:55:09.737Z,47.97
2022-11-09T00:57:37.540Z,48.00
2022-11-09T01:00:07.951Z,47.90
2022-11-09T01:02:35.802Z,47.43
2022-11-09T01:05:03.664Z,47.93
2022-11-09T01:07:31.454Z,47.83
2022-11-09T01:09:59.231Z,47.73
2022-11-09T01:12:27.032Z,47.47
2022-11-09T01:14:54.822Z,47.77
2022-11-09T01:17:24.214Z,47.67
2022-11-09T01:19:52.535Z,47.73
2022-11-09T01:22:20.435Z,47.67
2022-11-09T01:24:48.852Z,47.70
2022-11-09T01:27:17.464Z,47.97
2022-11-09T01:29:45.209Z,47.47
2022-11-09T01:32:13.000Z,47.87
2022-11-09T01:34:42.202Z,47.60
2022-11-09T01:37:09.981Z,47.63
2022-11-09T01:39:37.755Z,47.80
2022-11-09T01:42:05.883Z,47.57
2022-11-09T01:44:38.878Z,47.97
2022-11-09T01:47:14.021Z,47.80
2022-11-09T01:49:47.722Z,47.93
2022-11-09T01:52:21.579Z,47.70
2022-11-09T01:54:53.037Z,47.60
2022-11-09T01:57:24.535Z,47.33
2022-11-09T01:59:59.103Z,47.93
2022-11-09T02:02:26.982Z,47.40
2022-11-09T02:05:00.953Z,47.53
2022-11-09T02:07:29.616Z,47.60
2022-11-09T02:10:04.971Z,47.63
2022-11-09T02:12:34.891Z,47.67
2022-11-09T02:15:04.247Z,47.20
2022-11-09T02:17:33.486Z,47.73
2022-11-09T02:20:03.637Z,47.43
2022-11-09T02:22:34.475Z,47.33
2022-11-09T02:25:03.022Z,47.63
2022-11-09T02:27:31.013Z,47.53
2022-11-09T02:30:00.124Z,47.83
2022-11-09T02:32:30.516Z,47.43
2022-11-09T02:35:00.190Z,47.50
2022-11-09T02:37:29.476Z,47.60
2022-11-09T02:40:00.439Z,47.67
2022-11-09T02:42:28.313Z,47.23
2022-11-09T02:44:59.525Z,47.80
2022-11-09T02:47:28.151Z,47.60
2022-11-09T02:49:57.765Z,48.07
2022-11-09T02:52:26.731Z,47.77
2022-11-09T02:54:54.923Z,47.37
2022-11-09T02:57:24.056Z,47.30
2022-11-09T02:59:52.349Z,47.70
2022-11-09T03:02:21.651Z,47.60
2022-11-09T03:04:49.441Z,47.47
2022-11-09T03:07:17.678Z,47.47
2022-11-09T03:09:46.020Z,47.10
2022-11-09T03:12:32.088Z,47.53
2022-11-09T03:15:09.563Z,47.57
2022-11-09T03:17:41.302Z,47.13
2022-11-09T03:20:10.585Z,47.80
2022-11-09T03:22:40.163Z,48.37
2022-11-09T03:25:08.924Z,47.43
2022-11-09T03:27:36.759Z,47.13
2022-11-09T03:30:07.831Z,47.70
2022-11-09T03:32:36.249Z,48.03
2022-11-09T03:35:06.910Z,47.83
2022-11-09T03:37:34.780Z,47.63
2022-11-09T03:40:02.584Z,48.00
2022-11-09T03:42:30.721Z,47.30
2022-11-09T03:44:58.521Z,47.57
2022-11-09T03:47:27.625Z,47.60
2022-11-09T03:49:55.433Z,47.47
2022-11-09T03:52:23.198Z,47.77
2022-11-09T03:54:50.968Z,47.43
2022-11-09T03:57:18.737Z,47.60
2022-11-09T03:59:46.481Z,47.53
2022-11-09T04:02:14.335Z,47.93
2022-11-09T04:04:43.495Z,47.03
2022-11-09T04:07:11.789Z,48.03
2022-11-09T04:09:39.589Z,47.67
2022-11-09T04:12:07.481Z,47.47
2022-11-09T04:14:35.323Z,47.67
2022-11-09T04:17:03.125Z,47.13
2022-11-09T04:19:30.905Z,47.60
2022-11-09T04:22:00.047Z,47.57
2022-11-09T04:24:27.919Z,47.67
2022-11-09T04:26:55.748Z,47.60
2022-11-09T04:29:23.517Z,47.60
2022-11-09T04:31:51.339Z,47.70
2022-11-09T04:34:19.483Z,47.67
2022-11-09T04:36:47.285Z,47.03
2022-11-09T04:39:16.893Z,47.50
2022-11-09T04:41:44.642Z,47.43
2022-11-09T04:44:12.451Z,48.00
2022-11-09T04:46:40.247Z,47.83
2022-11-09T04:49:08.233Z,47.77
2022-11-09T04:51:35.995Z,48.20
2022-11-09T04:54:04.016Z,47.97
2022-11-09T04:56:33.226Z,47.50
2022-11-09T04:59:01.023Z,47.70
2022-11-09T05:01:28.791Z,47.33
2022-11-09T05:03:56.638Z,47.43
2022-11-09T05:06:33.531Z,47.57
2022-11-09T05:09:02.912Z,47.93
2022-11-09T05:11:30.982Z,47.87
2022-11-09T05:14:00.489Z,47.70
2022-11-09T05:16:29.245Z,47.73
2022-11-09T05:18:57.152Z,47.97
2022-11-09T05:21:24.953Z,47.90
2022-11-09T05:24:01.064Z,47.80
2022-11-09T05:26:30.662Z,47.47
2022-11-09T05:29:00.295Z,48.07
2022-11-09T05:31:29.216Z,47.37
2022-11-09T05:33:57.016Z,47.77
2022-11-09T05:36:24.924Z,47.73
2022-11-09T05:38:52.865Z,47.50
2022-11-09T05:41:21.274Z,47.60
2022-11-09T05:43:49.574Z,48.10
2022-11-09T05:46:19.541Z,47.73
2022-11-09T05:48:47.844Z,47.70
2022-11-09T05:51:16.378Z,47.60
2022-11-09T05:53:46.869Z,47.57
2022-11-09T05:56:15.859Z,47.67
2022-11-09T05:58:43.972Z,47.67
2022-11-09T06:01:13.537Z,48.07
2022-11-09T06:03:44.012Z,48.10
2022-11-09T06:06:12.963Z,47.57
2022-11-09T06:08:41.002Z,48.00
2022-11-09T06:11:10.504Z,47.37
2022-11-09T06:13:38.379Z,47.67
2022-11-09T06:16:07.190Z,47.63
2022-11-09T06:18:36.957Z,48.27
2022-11-09T06:21:07.190Z,47.93
2022-11-09T06:23:34.982Z,47.90
2022-11-09T06:26:07.257Z,47.50
2022-11-09T06:28:35.066Z,47.63
2022-11-09T06:31:04.940Z,47.73
2022-11-09T06:33:34.636Z,47.60
2022-11-09T06:36:03.123Z,47.60
2022-11-09T06:38:32.594Z,47.73
2022-11-09T06:41:01.290Z,47.70
2022-11-09T06:43:29.788Z,47.83
2022-11-09T06:45:57.671Z,47.77
2022-11-09T06:48:25.460Z,47.53
2022-11-09T06:50:53.270Z,47.93
2022-11-09T06:53:21.302Z,47.70
2022-11-09T06:55:51.172Z,47.70
2022-11-09T06:58:19.878Z,47.40
2022-11-09T07:00:47.939Z,47.67
2022-11-09T07:03:16.676Z,47.57
2022-11-09T07:05:44.927Z,47.50
2022-11-09T07:08:13.309Z,47.60
2022-11-09T07:10:41.668Z,47.80
2022-11-09T07:13:11.679Z,47.40
2022-11-09T07:15:40.434Z,47.67
2022-11-09T07:18:11.939Z,47.40
2022-11-09T07:20:39.940Z,47.70
2022-11-09T07:23:07.764Z,47.77
2022-11-09T07:25:35.891Z,47.67
2022-11-09T07:28:04.663Z,47.37
2022-11-09T07:30:33.942Z,47.37
2022-11-09T07:33:09.243Z,47.43
2022-11-09T07:35:37.812Z,47.57
2022-11-09T07:38:05.714Z,47.53
2022-11-09T07:40:33.621Z,47.33
2022-11-09T07:43:02.184Z,47.50
2022-11-09T07:45:31.075Z,47.57
2022-11-09T07:48:01.607Z,46.97
2022-11-09T07:50:31.093Z,47.13
2022-11-09T07:52:59.694Z,47.20
2022-11-09T07:55:28.783Z,47.47
2022-11-09T07:57:57.598Z,47.77
2022-11-09T08:00:26.252Z,47.47
2022-11-09T08:02:54.565Z,47.47
2022-11-09T08:05:24.022Z,47.83
2022-11-09T08:07:56.207Z,47.50
2022-11-09T08:10:24.956Z,47.70
2022-11-09T08:12:56.986Z,47.57
2022-11-09T08:15:25.392Z,47.23
2022-11-09T08:17:53.261Z,47.53
2022-11-09T08:20:22.796Z,47.63
2022-11-09T08:22:50.553Z,47.73
2022-11-09T08:25:18.518Z,47.30
2022-11-09T08:27:46.310Z,47.90
2022-11-09T08:30:16.942Z,47.80
2022-11-09T08:32:45.720Z,47.80
2022-11-09T08:35:17.738Z,48.07
2022-11-09T08:37:48.553Z,47.80
2022-11-09T08:40:18.033Z,48.07
2022-11-09T08:42:46.368Z,48.17
2022-11-09T08:45:14.951Z,48.57
2022-11-09T08:47:43.098Z,48.53
2022-11-09T08:50:12.562Z,48.27
2022-11-09T08:52:41.429Z,48.60
2022-11-09T08:55:11.366Z,48.50
2022-11-09T08:57:39.184Z,48.00
2022-11-09T09:00:08.603Z,48.27
2022-11-09T09:02:36.403Z,48.47
2022-11-09T09:05:04.551Z,48.43
2022-11-09T09:07:32.422Z,48.77
2022-11-09T09:10:00.185Z,48.50
2022-11-09T09:12:29.299Z,48.10
2022-11-09T09:14:57.160Z,48.23
2022-11-09T09:17:25.069Z,48.30
2022-11-09T09:19:52.826Z,48.50
2022-11-09T09:22:21.684Z,48.57
2022-11-09T09:24:49.469Z,48.83
2022-11-09T09:27:17.277Z,48.07
2022-11-09T09:29:46.547Z,48.23
2022-11-09T09:32:14.319Z,48.67
2022-11-09T09:34:42.181Z,48.27
2022-11-09T09:37:10.014Z,48.20
2022-11-09T09:39:37.758Z,48.23
2022-11-09T09:42:08.291Z,47.97
2022-11-09T09:44:43.946Z,48.07
2022-11-09T09:47:18.026Z,47.90
2022-11-09T09:49:53.116Z,48.30
2022-11-09T09:52:25.179Z,48.37
2022-11-09T09:55:00.451Z,48.37
2022-11-09T09:57:30.948Z,48.40
2022-11-09T10:00:02.282Z,47.70
2022-11-09T10:02:41.032Z,48.10
2022-11-09T10:05:12.454Z,48.60
2022-11-09T10:07:47.910Z,48.37
2022-11-09T10:10:37.923Z,48.43
2022-11-09T10:13:39.859Z,48.40
2022-11-09T10:16:13.031Z,48.80
2022-11-09T10:18:57.453Z,48.80
2022-11-09T10:21:37.649Z,48.53
2022-11-09T10:24:17.322Z,48.50
2022-11-09T10:26:48.729Z,48.60
2022-11-09T10:29:24.730Z,48.60
2022-11-09T10:31:54.504Z,49.30
2022-11-09T10:34:28.263Z,48.60
2022-11-09T10:37:04.542Z,48.50
2022-11-09T10:39:41.361Z,49.03
2022-11-09T10:42:27.955Z,49.47
2022-11-09T10:45:19.124Z,48.83
2022-11-09T10:48:07.601Z,48.97
2022-11-09T10:50:55.525Z,48.80
2022-11-09T10:53:41.666Z,48.77
2022-11-09T10:56:32.937Z,49.07
2022-11-09T10:59:40.063Z,49.00
2022-11-09T11:02:43.103Z,48.97
2022-11-09T11:05:35.958Z,48.80
2022-11-09T11:08:39.111Z,49.10
2022-11-09T11:11:33.864Z,48.70
2022-11-09T11:14:30.543Z,49.27
2022-11-09T11:17:24.973Z,48.40
2022-11-09T11:20:29.680Z,48.57
2022-11-09T11:23:19.045Z,48.60
2022-11-09T11:26:28.846Z,48.40
2022-11-09T11:29:33.223Z,48.40
2022-11-09T11:32:21.161Z,48.17
2022-11-09T11:35:14.930Z,48.77
2022-11-09T11:38:12.220Z,48.53
2022-11-09T11:41:05.574Z,48.60
2022-11-09T11:44:00.345Z,48.53
2022-11-09T11:46:48.894Z,48.50
2022-11-09T11:50:09.386Z,48.77
2022-11-09T11:53:10.857Z,48.57
2022-11-09T11:56:17.884Z,48.27
2022-11-09T11:59:33.556Z,48.27
2022-11-09T12:02:58.412Z,48.27
2022-11-09T12:06:10.935Z,48.53
2022-11-09T12:09:08.509Z,48.00
2022-11-09T12:12:08.535Z,47.90
2022-11-09T12:15:07.526Z,48.43
2022-11-09T12:18:05.081Z,48.33
2022-11-09T12:20:58.409Z,48.07
2022-11-09T12:24:03.613Z,48.30
2022-11-09T12:27:26.022Z,48.07
2022-11-09T12:30:17.136Z,48.40
2022-11-09T12:33:09.734Z,48.17
2022-11-09T12:36:01.176Z,48.07
2022-11-09T12:38:59.123Z,48.23
2022-11-09T12:41:47.315Z,48.47
2022-11-09T12:44:37.833Z,48.27
2022-11-09T12:47:31.131Z,48.53
2022-11-09T12:50:19.936Z,47.87
2022-11-09T12:53:07.241Z,48.17
2022-11-09T12:55:58.855Z,48.33
2022-11-09T12:58:46.002Z,48.20
2022-11-09T13:01:52.752Z,48.10
2022-11-09T13:04:54.582Z,48.43
2022-11-09T13:07:49.665Z,47.90
2022-11-09T13:10:37.941Z,47.97
2022-11-09T13:13:26.103Z,48.40
2022-11-09T13:16:28.734Z,47.93
2022-11-09T13:19:54.139Z,48.10
2022-11-09T13:23:01.091Z,48.40
2022-11-09T13:25:52.813Z,47.93
2022-11-09T13:29:10.121Z,48.33
2022-11-09T13:32:03.148Z,47.70
2022-11-09T13:34:51.590Z,47.90
2022-11-09T13:37:54.458Z,47.87
2022-11-09T13:40:48.298Z,48.17
2022-11-09T13:43:39.040Z,47.80
2022-11-09T13:46:27.612Z,47.90
2022-11-09T13:49:47.842Z,47.80
2022-11-09T13:52:58.817Z,47.27
2022-11-09T13:55:46.769Z,48.13
2022-11-09T13:58:38.025Z,47.83
2022-11-09T14:01:30.495Z,48.10
2022-11-09T14:04:23.665Z,48.03
2022-11-09T14:07:16.519Z,47.97
2022-11-09T14:10:09.434Z,47.93
2022-11-09T14:13:17.130Z,47.57
2022-11-09T14:16:11.858Z,47.87
2022-11-09T14:19:09.611Z,47.90
2022-11-09T14:21:56.298Z,47.77
2022-11-09T14:24:43.170Z,47.67
2022-11-09T14:27:29.645Z,48.13
2022-11-09T14:30:21.466Z,47.57
2022-11-09T14:33:22.695Z,47.63
2022-11-09T14:36:13.856Z,47.67
2022-11-09T14:39:02.529Z,47.90
2022-11-09T14:41:49.560Z,47.70
2022-11-09T14:44:40.668Z,48.00
2022-11-09T14:47:31.439Z,48.27
2022-11-09T14:50:20.945Z,47.33
2022-11-09T14:53:07.786Z,47.83
2022-11-09T14:55:56.665Z,47.60
2022-11-09T14:58:45.045Z,47.80
2022-11-09T15:01:31.770Z,47.70
2022-11-09T15:04:21.678Z,47.33
2022-11-09T15:07:18.426Z,47.33
2022-11-09T15:10:08.338Z,47.37
2022-11-09T15:12:58.685Z,47.63
2022-11-09T15:15:52.671Z,47.47
2022-11-09T15:18:45.699Z,47.67
2022-11-09T15:21:38.726Z,47.57
2022-11-09T15:24:27.508Z,47.70
2022-11-09T15:27:31.704Z,47.20
2022-11-09T15:30:33.848Z,47.43
2022-11-09T15:33:28.754Z,47.40
2022-11-09T15:36:29.357Z,47.37
2022-11-09T15:39:19.365Z,47.17
2022-11-09T15:42:06.236Z,47.77
2022-11-09T15:44:53.806Z,47.27
2022-11-09T15:47:39.963Z,46.97
2022-11-09T15:50:28.646Z,47.40
2022-11-09T15:53:15.531Z,47.27
2022-11-09T15:56:03.298Z,47.33
2022-11-09T15:58:49.741Z,47.30
2022-11-09T16:01:36.347Z,47.33
2022-11-09T16:04:22.926Z,47.13
2022-11-09T16:07:14.273Z,47.83
2022-11-09T16:10:01.152Z,47.63
2022-11-09T16:12:48.906Z,47.70
2022-11-09T16:15:37.011Z,47.27
2022-11-09T16:18:26.192Z,47.43
2022-11-09T16:21:14.814Z,47.30
2022-11-09T16:24:01.338Z,47.40
2022-11-09T16:26:47.814Z,47.17
2022-11-09T16:29:35.501Z,47.27
2022-11-09T16:32:21.871Z,47.37
2022-11-09T16:38:15.942Z,47.03
2022-11-09T16:41:03.743Z,47.07
2022-11-09T16:43:53.303Z,47.00
2022-11-09T16:46:43.297Z,47.17
2022-11-09T16:49:30.255Z,47.13
2022-11-09T16:52:16.457Z,47.27
2022-11-09T16:55:03.113Z,47.23
2022-11-09T16:57:49.449Z,46.93
2022-11-09T17:01:03.913Z,46.93
2022-11-09T17:03:43.462Z,47.10
2022-11-09T17:06:29.721Z,47.33
2022-11-09T17:09:16.952Z,47.13
2022-11-09T17:12:04.270Z,46.70
2022-11-09T17:14:50.999Z,46.50
2022-11-09T17:17:37.351Z,47.30
2022-11-09T17:20:25.283Z,46.77
2022-11-09T17:23:12.523Z,47.03
2022-11-09T17:26:01.335Z,46.67
2022-11-09T17:28:48.391Z,47.13
2022-11-09T17:31:35.027Z,46.63
2022-11-09T17:34:21.695Z,46.80
2022-11-09T17:37:09.466Z,46.77
2022-11-09T17:39:55.902Z,47.03
2022-11-09T17:42:42.298Z,47.17
2022-11-09T17:45:28.946Z,47.00
2022-11-09T17:48:15.166Z,46.80
2022-11-09T17:51:01.897Z,46.93
2022-11-09T17:53:49.654Z,46.60
2022-11-09T17:56:36.241Z,46.67
2022-11-09T17:59:22.695Z,46.80
2022-11-09T18:02:10.567Z,47.00
2022-11-09T18:04:56.780Z,46.83
2022-11-09T18:07:43.119Z,46.80
2022-11-09T18:10:31.786Z,46.97
2022-11-09T18:13:19.206Z,46.93
2022-11-09T18:16:13.306Z,46.93
2022-11-09T18:19:04.391Z,46.87
2022-11-09T18:21:50.581Z,46.57
2022-11-09T18:24:37.107Z,46.97
2022-11-09T18:27:30.080Z,47.17
2022-11-09T18:30:17.894Z,46.97
2022-11-09T18:33:04.262Z,46.83
2022-11-09T18:35:57.102Z,47.20
2022-11-09T18:38:44.340Z,47.07
2022-11-09T18:41:31.129Z,47.17
2022-11-09T18:44:18.743Z,46.93
2022-11-09T18:47:08.428Z,47.20
2022-11-09T18:49:55.128Z,46.90
2022-11-09T18:52:41.691Z,47.00
2022-11-09T18:55:27.995Z,47.13
2022-11-09T18:58:14.486Z,47.27
2022-11-09T19:01:03.827Z,47.03
2022-11-09T19:03:53.821Z,47.00
2022-11-09T19:06:43.546Z,47.27
2022-11-09T19:09:31.371Z,47.07
2022-11-09T19:12:17.550Z,46.97
2022-11-09T19:15:04.570Z,47.07
2022-11-09T19:17:52.358Z,46.93
2022-11-09T19:20:39.519Z,46.70
2022-11-09T19:23:32.789Z,47.03
2022-11-09T19:26:21.559Z,46.97
2022-11-09T19:29:09.253Z,46.90
2022-11-09T19:31:55.404Z,46.93
2022-11-09T19:34:43.534Z,46.73
2022-11-09T19:37:30.063Z,46.90
2022-11-09T19:40:17.148Z,47.30
2022-11-09T19:43:03.335Z,46.70
2022-11-09T19:45:49.651Z,47.07
2022-11-09T19:48:36.523Z,46.97
2022-11-09T19:51:24.612Z,47.00
2022-11-09T19:54:13.080Z,47.07
2022-11-09T19:56:59.361Z,46.67
2022-11-09T19:59:45.786Z,46.87
2022-11-09T20:02:32.003Z,47.00
2022-11-09T20:05:18.465Z,46.70
2022-11-09T20:08:06.323Z,46.93
2022-11-09T20:10:53.984Z,46.83
2022-11-09T20:13:41.763Z,46.97
2022-11-09T20:16:28.543Z,46.87
2022-11-09T20:19:15.254Z,47.13
2022-11-09T20:22:01.967Z,46.90
2022-11-09T20:24:49.896Z,46.73
2022-11-09T20:27:36.783Z,46.97
2022-11-09T20:30:23.132Z,46.73
2022-11-09T20:33:10.487Z,46.67
2022-11-09T20:35:56.920Z,46.57
2022-11-09T20:38:43.340Z,46.60
2022-11-09T20:41:32.723Z,46.47
2022-11-09T20:44:18.982Z,46.67
2022-11-09T20:47:06.031Z,47.10
2022-11-09T20:49:52.635Z,46.77
2022-11-09T20:52:39.168Z,47.03
2022-11-09T20:55:25.627Z,47.27
2022-11-09T20:58:16.339Z,47.00
2022-11-09T21:01:04.916Z,47.17
2022-11-09T21:03:52.806Z,47.10
2022-11-09T21:06:39.446Z,47.53
2022-11-09T21:09:25.933Z,47.47
2022-11-09T21:12:24.541Z,47.80
2022-11-09T21:15:15.061Z,47.70
2022-11-09T21:18:01.300Z,47.60
2022-11-09T21:20:47.906Z,47.43
2022-11-09T21:24:00.596Z,47.43
2022-11-09T21:27:04.815Z,47.23
2022-11-09T21:29:51.322Z,47.37
2022-11-09T21:32:39.403Z,47.73
2022-11-09T21:35:26.333Z,47.37
2022-11-09T21:38:12.779Z,47.33
2022-11-09T21:41:05.357Z,47.57
2022-11-09T21:43:54.834Z,47.27
2022-11-09T21:46:42.647Z,47.73
2022-11-09T21:49:30.541Z,47.70
2022-11-09T21:52:16.689Z,47.70
2022-11-09T21:55:02.965Z,47.37
2022-11-09T21:57:49.825Z,47.40
2022-11-09T22:00:36.069Z,47.53
2022-11-09T22:03:22.795Z,47.53
2022-11-09T22:06:11.266Z,47.30
2022-11-09T22:08:57.717Z,47.87
2022-11-09T22:12:02.358Z,47.83
2022-11-09T22:15:06.459Z,47.30
2022-11-09T22:17:54.271Z,47.73
2022-11-09T22:20:54.541Z,47.30
2022-11-09T22:23:42.229Z,47.97
2022-11-09T22:26:30.093Z,47.40
2022-11-09T22:29:16.557Z,47.37
2022-11-09T22:32:03.046Z,47.90
2022-11-09T22:34:49.239Z,47.43
2022-11-09T22:37:35.721Z,47.63
2022-11-09T22:40:23.321Z,47.87
2022-11-09T22:43:10.041Z,47.57
2022-11-09T22:45:56.178Z,47.30
2022-11-09T22:48:44.326Z,48.00
2022-11-09T22:51:30.699Z,47.60
2022-11-09T22:54:16.938Z,47.60
2022-11-09T22:57:05.118Z,47.83
2022-11-09T22:59:51.696Z,47.63
2022-11-09T23:02:38.280Z,47.40
2022-11-09T23:05:24.605Z,47.77
2022-11-09T23:08:11.568Z,47.70
2022-11-09T23:10:58.447Z,47.47
2022-11-09T23:13:50.076Z,47.97
2022-11-09T23:16:36.378Z,47.40
2022-11-09T23:19:21.739Z,47.57
2022-11-09T23:22:08.273Z,47.40
2022-11-09T23:25:12.020Z,47.77
2022-11-09T23:27:58.860Z,47.70
2022-11-09T23:30:46.478Z,47.67
2022-11-09T23:33:33.031Z,47.30
2022-11-09T23:36:19.734Z,47.60
2022-11-09T23:39:06.321Z,47.63
2022-11-09T23:41:52.533Z,47.60
2022-11-09T23:44:38.961Z,47.87
2022-11-09T23:47:26.614Z,47.63
2022-11-09T23:50:13.090Z,47.43
2022-11-09T23:53:00.894Z,47.53
2022-11-09T23:55:47.401Z,47.53
2022-11-09T23:58:34.106Z,47.50
